Aeroporto :
LOGIN :

Iscrizione | Disclaimer

   EN    FR    IT 

 










Sommario :    VFR   VFR Marginale   IFR   IFR Intensivo   IFR Molto Intensivo
Visibilità : 
Base nubi : 
>= 8 km
>= 3000ft
5 / 8 km
1000 / 3000 ft
1500m / 5 km
500 / 1000 ft
800 / 1500m
200 / 500 ft
< 800m
< 200 ft
Simboli :   Temporali  Nebbia  Neve Forte  Precipitazioni Forti  Vento > 20 kt
SIGMETs :   Varie  Temporali  Ghiacco  Turbolenza  Onda orograficha  Ceneri Vulcaniche






- Altitudine del aeroporto : 219 ft
- Codice IATA : DNR


LFRD - Dinard

ULTIMO METAR :
  • 200630Z AUTO 30007KT CAVOK 14/13 Q1018 TEMPO 32015G25KT 4000 SHRA BKN008

METARs OBSOLETI :
  • 200600Z AUTO 30002KT 9999 BKN049/// BKN074/// OVC100/// //////TCU 14/13 Q1018 TEMPO 4000 SHRA BKN008
  • 200530Z AUTO 33004KT 9999 FEW049/// SCT072/// BKN098/// //////CB 14/13 Q1018 TEMPO 4000 SHRA BKN008
  • 200500Z AUTO 29003KT CAVOK 13/13 Q1018 TEMPO 2000 TSRA BKN008 BKN030CB
  • 200430Z AUTO VRB01KT CAVOK 13/12 Q1018 TEMPO 2000 TSRA BKN008 BKN030CB

TAF TAF LFRD
Valido dal 20 a 06 ore il 21 a 06 ore UTC


200500Z 2006/2106 VRB05KT CAVOK
BECMG 2006/2008 32010KT
TEMPO 2006/2008 4000 SHRA BKN050CB
TEMPO 2006/2008 BKN008
TEMPO 2008/2010 32015G25KT
BECMG 2021/2023 VRB05KT
TEMPO 2104/2106 3000 BR BKN005
PROB40
TEMPO 2100/2106 0500 FG VV///
ATIS : +33 2 99 16 81 50



MetMap, La meteo Aeronautica in un colpo d'occhio ! - Copyright ORBIFLY Dicembre 2007 - Disclaimer

ORBIFLY MET'MAP TEAM :

Programmazione e sviluppo : Alexandra Zaïnal
Concezione : Baudouin d'Aumeries
Supporto tecnico e logistico : Manuel Goepfert
Aiuto : Marc-Olivier Méhu
Aiuto per la traduzione : Arnaldo La Scala

Contatto : metmap@orbifly.com




FONTI E CREDITI :

   NOAA